createdAt,value
2022-12-11T00:00:19.662Z,6.72
2022-12-11T00:03:02.530Z,5.70
2022-12-11T00:05:46.859Z,7.10
2022-12-11T00:08:31.059Z,6.93
2022-12-11T00:11:15.208Z,6.47
2022-12-11T00:13:58.030Z,7.40
2022-12-11T00:16:41.026Z,7.50
2022-12-11T00:19:24.003Z,8.68
2022-12-11T00:22:06.913Z,10.60
2022-12-11T00:24:51.267Z,9.35
2022-12-11T00:27:34.095Z,9.55
2022-12-11T00:30:16.947Z,9.52
2022-12-11T00:32:59.834Z,11.40
2022-12-11T00:35:44.765Z,9.32
2022-12-11T00:38:27.789Z,9.85
2022-12-11T00:41:12.020Z,12.40
2022-12-11T00:43:54.928Z,10.27
2022-12-11T00:46:37.767Z,10.32
2022-12-11T00:49:20.677Z,8.55
2022-12-11T00:52:03.471Z,7.03
2022-12-11T00:54:46.363Z,8.35
2022-12-11T00:57:30.530Z,7.88
2022-12-11T01:00:14.717Z,6.68
2022-12-11T01:02:57.597Z,6.43
2022-12-11T01:05:40.835Z,7.65
2022-12-11T01:08:23.821Z,8.05
2022-12-11T01:11:10.131Z,6.13
2022-12-11T01:13:54.318Z,5.97
2022-12-11T01:16:37.905Z,5.25
2022-12-11T01:19:20.811Z,5.13
2022-12-11T01:22:03.662Z,5.70
2022-12-11T01:24:46.576Z,5.78
2022-12-11T01:27:29.453Z,6.53
2022-12-11T01:30:14.367Z,6.50
2022-12-11T01:32:57.275Z,6.55
2022-12-11T01:35:41.249Z,7.50
2022-12-11T01:38:24.100Z,11.02
2022-12-11T01:41:07.221Z,9.40
2022-12-11T01:44:06.735Z,8.57
2022-12-11T01:46:50.946Z,7.72
2022-12-11T01:49:33.970Z,7.55
2022-12-11T01:52:20.910Z,7.93
2022-12-11T01:55:03.966Z,8.38
2022-12-11T01:57:50.043Z,10.85
2022-12-11T02:00:32.936Z,12.55
2022-12-11T02:03:17.149Z,10.43
2022-12-11T02:06:00.861Z,9.15
2022-12-11T02:08:43.705Z,10.38
2022-12-11T02:11:36.428Z,9.57
2022-12-11T02:14:28.002Z,8.93
2022-12-11T02:17:15.614Z,8.20
2022-12-11T02:20:06.644Z,7.43
2022-12-11T02:23:09.350Z,9.25
2022-12-11T02:26:01.411Z,9.45
2022-12-11T02:28:50.328Z,9.57
2022-12-11T02:31:37.988Z,7.38
2022-12-11T02:34:26.433Z,7.13
2022-12-11T02:37:13.971Z,6.43
2022-12-11T02:39:58.117Z,7.40
2022-12-11T02:42:44.209Z,7.60
2022-12-11T02:45:29.778Z,7.10
2022-12-11T02:48:14.526Z,8.30
2022-12-11T02:50:59.262Z,6.85
2022-12-11T02:53:44.861Z,6.95
2022-12-11T02:56:32.362Z,6.50
2022-12-11T02:59:20.081Z,7.45
2022-12-11T03:02:05.480Z,6.05
2022-12-11T03:04:49.130Z,6.65
2022-12-11T03:07:36.143Z,5.55
2022-12-11T03:10:21.008Z,6.03
2022-12-11T03:13:04.505Z,6.45
2022-12-11T03:16:00.292Z,5.70
2022-12-11T03:18:53.602Z,6.80
2022-12-11T03:21:42.804Z,6.05
2022-12-11T03:24:31.738Z,6.32
2022-12-11T03:27:21.056Z,5.82
2022-12-11T03:30:07.322Z,6.68
2022-12-11T03:32:52.906Z,5.47
2022-12-11T03:35:40.985Z,5.05
2022-12-11T03:38:26.802Z,4.57
2022-12-11T03:41:11.715Z,5.82
2022-12-11T03:43:57.299Z,6.40
2022-12-11T03:46:43.268Z,5.68
2022-12-11T03:49:31.771Z,4.85
2022-12-11T03:52:17.885Z,4.75
2022-12-11T03:55:04.069Z,5.55
2022-12-11T03:57:46.971Z,6.40
2022-12-11T04:00:30.922Z,6.03
2022-12-11T04:03:14.435Z,6.53
2022-12-11T04:05:58.014Z,6.25
2022-12-11T04:08:42.196Z,5.70
2022-12-11T04:11:36.834Z,6.20
2022-12-11T04:14:38.824Z,6.28
2022-12-11T04:17:35.608Z,6.38
2022-12-11T04:20:36.780Z,6.50
2022-12-11T04:23:38.105Z,6.45
2022-12-11T04:26:22.606Z,5.90
2022-12-11T04:29:05.445Z,6.95
2022-12-11T04:31:48.283Z,6.55
2022-12-11T04:34:31.381Z,9.00
2022-12-11T04:37:14.245Z,6.82
2022-12-11T04:39:57.076Z,6.70
2022-12-11T04:42:41.485Z,5.63
2022-12-11T04:48:07.719Z,6.30
2022-12-11T04:50:50.586Z,7.25
2022-12-11T04:53:33.601Z,5.53
2022-12-11T04:56:17.543Z,6.75
2022-12-11T04:59:02.219Z,5.63
2022-12-11T05:01:45.302Z,5.32
2022-12-11T05:04:32.246Z,5.47
2022-12-11T05:07:15.476Z,6.53
2022-12-11T05:09:58.294Z,5.45
2022-12-11T05:12:41.180Z,5.43
2022-12-11T05:15:25.411Z,6.05
2022-12-11T05:18:08.328Z,5.82
2022-12-11T05:20:56.580Z,5.20
2022-12-11T05:23:40.126Z,4.28
2022-12-11T05:26:22.968Z,3.77
2022-12-11T05:29:05.947Z,5.32
2022-12-11T05:31:50.140Z,5.15
2022-12-11T05:34:33.137Z,4.50
2022-12-11T05:37:16.026Z,3.83
2022-12-11T05:39:58.879Z,4.13
2022-12-11T05:42:41.762Z,3.83
2022-12-11T05:45:24.606Z,4.22
2022-12-11T05:48:09.266Z,3.55
2022-12-11T05:50:59.558Z,3.65
2022-12-11T05:53:43.971Z,4.60
2022-12-11T05:59:10.530Z,2.95
2022-12-11T06:01:53.493Z,3.63
2022-12-11T06:04:37.729Z,3.65
2022-12-11T06:07:20.545Z,4.45
2022-12-11T06:10:03.389Z,5.20
2022-12-11T06:12:46.266Z,4.60
2022-12-11T06:15:29.148Z,5.50
2022-12-11T06:18:12.023Z,4.80
2022-12-11T06:20:56.205Z,5.43
2022-12-11T06:23:39.079Z,5.18
2022-12-11T06:26:22.518Z,5.28
2022-12-11T06:29:09.226Z,5.10
2022-12-11T06:31:55.629Z,4.28
2022-12-11T06:34:38.550Z,5.90
2022-12-11T06:37:22.756Z,4.82
2022-12-11T06:40:06.877Z,6.00
2022-12-11T06:42:49.738Z,6.55
2022-12-11T06:45:32.777Z,5.05
2022-12-11T06:48:15.690Z,5.38
2022-12-11T06:50:58.601Z,7.00
2022-12-11T06:53:44.062Z,4.85
2022-12-11T06:56:26.941Z,5.35
2022-12-11T06:59:12.606Z,5.70
2022-12-11T07:01:55.525Z,5.70
2022-12-11T07:04:38.438Z,5.07
2022-12-11T07:07:21.291Z,4.57
2022-12-11T07:10:08.536Z,4.45
2022-12-11T07:12:53.665Z,5.15
2022-12-11T07:15:40.516Z,4.97
2022-12-11T07:18:23.582Z,4.65
2022-12-11T07:21:07.154Z,4.28
2022-12-11T07:23:50.971Z,4.38
2022-12-11T07:26:35.465Z,4.57
2022-12-11T07:29:18.329Z,5.68
2022-12-11T07:32:01.321Z,7.57
2022-12-11T07:34:50.079Z,5.95
2022-12-11T07:37:34.497Z,6.72
2022-12-11T07:40:17.781Z,5.70
2022-12-11T07:43:01.995Z,6.82
2022-12-11T07:45:44.921Z,8.40
2022-12-11T07:48:27.797Z,6.60
2022-12-11T07:51:11.694Z,7.82
2022-12-11T07:53:57.083Z,6.20
2022-12-11T07:59:28.181Z,5.97
2022-12-11T08:02:11.812Z,7.38
2022-12-11T08:04:54.776Z,7.07
2022-12-11T08:07:37.635Z,5.60
2022-12-11T08:10:20.749Z,6.03
2022-12-11T08:13:03.599Z,4.78
2022-12-11T08:15:47.827Z,5.45
2022-12-11T08:18:30.677Z,9.75
2022-12-11T08:21:15.859Z,7.93
2022-12-11T08:23:58.896Z,7.10
2022-12-11T08:26:41.819Z,6.78
2022-12-11T08:29:24.822Z,6.50
2022-12-11T08:32:12.418Z,5.53
2022-12-11T08:34:55.555Z,7.00
2022-12-11T08:37:38.382Z,9.32
2022-12-11T08:40:21.389Z,7.40
2022-12-11T08:43:04.550Z,5.20
2022-12-11T08:45:49.418Z,6.70
2022-12-11T08:48:33.962Z,7.75
2022-12-11T08:51:20.688Z,6.30
2022-12-11T08:54:03.542Z,7.13
2022-12-11T08:56:46.449Z,5.88
2022-12-11T08:59:29.304Z,5.82
2022-12-11T09:02:13.385Z,7.80
2022-12-11T09:04:57.648Z,7.60
2022-12-11T09:07:40.684Z,6.00
2022-12-11T09:10:23.522Z,6.68
2022-12-11T09:13:06.458Z,7.40
2022-12-11T09:15:49.357Z,6.32
2022-12-11T09:18:32.257Z,5.53
2022-12-11T09:21:18.675Z,5.63
2022-12-11T09:24:02.708Z,6.07
2022-12-11T09:26:47.215Z,7.43
2022-12-11T09:29:30.050Z,5.15
2022-12-11T09:32:12.913Z,5.90
2022-12-11T09:34:55.736Z,6.43
2022-12-11T09:37:39.982Z,6.75
2022-12-11T09:40:22.867Z,9.55
2022-12-11T09:43:18.124Z,8.88
2022-12-11T09:46:04.107Z,6.90
2022-12-11T09:48:49.689Z,6.43
2022-12-11T09:51:41.064Z,11.40
2022-12-11T09:54:25.365Z,7.85
2022-12-11T09:57:18.388Z,7.88
2022-12-11T10:00:13.443Z,5.90
2022-12-11T10:03:10.047Z,10.65
2022-12-11T10:06:04.199Z,7.40
2022-12-11T10:09:01.811Z,7.63
2022-12-11T10:11:57.223Z,6.28
2022-12-11T10:14:52.440Z,6.18
2022-12-11T10:17:38.269Z,5.30
2022-12-11T10:20:26.815Z,5.18
2022-12-11T10:23:15.109Z,4.95
2022-12-11T10:26:03.956Z,4.93
2022-12-11T10:28:48.697Z,4.85
2022-12-11T10:31:42.389Z,5.90
2022-12-11T10:34:34.380Z,6.30
2022-12-11T10:37:17.328Z,4.93
2022-12-11T10:40:00.158Z,3.78
2022-12-11T10:42:53.251Z,3.33
2022-12-11T10:45:37.603Z,3.30
2022-12-11T10:48:20.653Z,4.55
2022-12-11T10:51:07.076Z,3.10
2022-12-11T10:53:53.976Z,3.30
2022-12-11T10:56:38.891Z,3.80
2022-12-11T10:59:25.478Z,4.03
2022-12-11T11:02:24.266Z,7.90
2022-12-11T11:05:14.261Z,4.80
2022-12-11T11:08:11.765Z,4.15
2022-12-11T11:10:56.643Z,4.20
2022-12-11T11:13:39.534Z,4.32
2022-12-11T11:16:23.653Z,6.00
2022-12-11T11:19:08.774Z,5.35
2022-12-11T11:21:53.740Z,4.18
2022-12-11T11:24:40.956Z,4.20
2022-12-11T11:27:30.871Z,9.13
2022-12-11T11:30:20.735Z,9.65
2022-12-11T11:33:06.458Z,6.03
2022-12-11T11:35:55.255Z,6.68
2022-12-11T11:38:45.839Z,6.45
2022-12-11T11:41:35.043Z,4.63
2022-12-11T11:44:26.441Z,4.05
2022-12-11T11:47:15.381Z,3.58
2022-12-11T11:50:04.837Z,3.28
2022-12-11T11:52:54.168Z,3.28
2022-12-11T11:55:45.087Z,3.75
2022-12-11T11:58:36.233Z,2.88
2022-12-11T12:01:21.417Z,2.85
2022-12-11T12:04:05.879Z,3.03
2022-12-11T12:09:53.946Z,4.50
2022-12-11T12:12:44.581Z,3.90
2022-12-11T12:15:39.953Z,11.05
2022-12-11T12:18:36.301Z,5.15
2022-12-11T12:21:28.325Z,3.97
2022-12-11T12:24:21.827Z,3.95
2022-12-11T12:27:50.935Z,2.70
2022-12-11T12:30:25.608Z,3.22
2022-12-11T12:33:28.782Z,3.30
2022-12-11T12:36:20.238Z,3.10
2022-12-11T12:39:08.274Z,2.70
2022-12-11T12:42:03.979Z,3.20
2022-12-11T12:44:59.368Z,2.70
2022-12-11T12:47:46.747Z,3.10
2022-12-11T12:50:40.818Z,3.67
2022-12-11T12:53:26.578Z,2.65
2022-12-11T12:56:12.557Z,2.75
2022-12-11T12:58:55.534Z,2.50
2022-12-11T13:01:39.972Z,3.17
2022-12-11T13:07:35.281Z,2.40
2022-12-11T13:10:28.673Z,2.33
2022-12-11T13:13:31.550Z,2.33
2022-12-11T13:16:27.472Z,2.72
2022-12-11T13:19:29.177Z,2.13
2022-12-11T13:22:23.247Z,2.20
2022-12-11T13:25:22.146Z,2.38
2022-12-11T13:28:09.714Z,2.35
2022-12-11T13:31:05.847Z,3.05
2022-12-11T13:33:50.859Z,3.35
2022-12-11T13:36:37.729Z,3.10
2022-12-11T13:39:24.606Z,2.80
2022-12-11T13:42:21.762Z,3.20
2022-12-11T13:45:05.606Z,3.40
2022-12-11T13:47:48.759Z,3.08
2022-12-11T13:50:34.197Z,3.08
2022-12-11T13:53:19.808Z,3.20
2022-12-11T13:56:04.781Z,2.90
2022-12-11T13:58:48.272Z,3.80
2022-12-11T14:01:35.232Z,4.13
2022-12-11T14:04:22.518Z,3.92
2022-12-11T14:07:09.118Z,4.55
2022-12-11T14:10:00.156Z,3.70
2022-12-11T14:12:47.389Z,3.20
2022-12-11T14:15:33.930Z,3.10
2022-12-11T14:18:22.161Z,2.90
2022-12-11T14:21:07.034Z,3.38
2022-12-11T14:23:53.721Z,2.75
2022-12-11T14:26:38.808Z,2.90
2022-12-11T14:29:26.964Z,4.00
2022-12-11T14:32:10.286Z,6.47
2022-12-11T14:34:54.741Z,4.18
2022-12-11T14:37:38.155Z,4.03
2022-12-11T14:40:25.932Z,4.00
2022-12-11T14:43:16.520Z,3.90
2022-12-11T14:46:03.778Z,3.42
2022-12-11T14:48:59.119Z,3.22
2022-12-11T14:51:44.622Z,3.03
2022-12-11T14:54:34.925Z,2.78
2022-12-11T14:57:21.145Z,2.72
2022-12-11T15:00:07.297Z,3.60
2022-12-11T15:02:59.520Z,2.65
2022-12-11T15:05:51.398Z,2.72
2022-12-11T15:08:36.930Z,2.80
2022-12-11T15:11:20.245Z,2.75
2022-12-11T15:14:05.622Z,3.33
2022-12-11T15:16:51.587Z,3.25
2022-12-11T15:19:36.262Z,3.42
2022-12-11T15:22:21.017Z,2.70
2022-12-11T15:25:05.876Z,2.83
2022-12-11T15:27:53.105Z,2.88
2022-12-11T15:30:36.343Z,2.78
2022-12-11T15:33:22.652Z,2.63
2022-12-11T15:36:08.160Z,3.10
2022-12-11T15:38:50.989Z,3.33
2022-12-11T15:41:34.753Z,4.10
2022-12-11T15:44:22.622Z,4.18
2022-12-11T15:47:13.228Z,4.50
2022-12-11T15:50:00.627Z,5.40
2022-12-11T15:52:43.956Z,4.22
2022-12-11T15:55:29.714Z,3.72
2022-12-11T15:58:17.565Z,3.00
2022-12-11T16:01:00.717Z,4.60
2022-12-11T16:03:43.543Z,4.07
2022-12-11T16:06:27.871Z,4.10
2022-12-11T16:11:53.440Z,3.63
2022-12-11T16:14:39.194Z,4.35
2022-12-11T16:17:22.094Z,4.65
2022-12-11T16:20:05.766Z,4.25
2022-12-11T16:22:50.010Z,4.60
2022-12-11T16:25:33.737Z,4.60
2022-12-11T16:28:20.709Z,3.63
2022-12-11T16:31:03.712Z,4.05
2022-12-11T16:33:46.623Z,3.00
2022-12-11T16:36:29.503Z,3.28
2022-12-11T16:39:13.851Z,3.58
2022-12-11T16:44:43.819Z,2.95
2022-12-11T16:47:27.091Z,3.22
2022-12-11T16:50:12.021Z,2.72
2022-12-11T16:52:55.425Z,3.22
2022-12-11T16:55:40.660Z,3.20
2022-12-11T16:58:23.606Z,3.95
2022-12-11T17:01:12.045Z,3.30
2022-12-11T17:03:55.296Z,3.67
2022-12-11T17:06:38.155Z,3.40
2022-12-11T17:09:21.038Z,3.67
2022-12-11T17:12:06.239Z,3.10
2022-12-11T17:14:49.090Z,4.57
2022-12-11T17:17:32.235Z,4.53
2022-12-11T17:20:15.282Z,3.28
2022-12-11T17:22:58.140Z,3.13
2022-12-11T17:25:42.011Z,3.63
2022-12-11T17:28:26.323Z,3.33
2022-12-11T17:33:54.444Z,3.60
2022-12-11T17:36:37.346Z,3.50
2022-12-11T17:39:20.277Z,4.28
2022-12-11T17:42:03.084Z,4.00
2022-12-11T17:44:47.327Z,3.40
2022-12-11T17:47:30.184Z,3.13
2022-12-11T17:50:13.055Z,3.70
2022-12-11T17:52:55.910Z,3.72
2022-12-11T17:55:42.805Z,3.17
2022-12-11T17:58:25.790Z,3.90
2022-12-11T18:01:11.835Z,3.15
2022-12-11T18:03:54.772Z,2.78
2022-12-11T18:06:37.654Z,2.90
2022-12-11T18:09:20.527Z,3.85
2022-12-11T18:12:03.380Z,8.98
2022-12-11T18:14:46.286Z,4.80
2022-12-11T18:17:30.533Z,5.60
2022-12-11T18:22:57.308Z,4.70
2022-12-11T18:25:40.121Z,4.03
2022-12-11T18:28:23.230Z,4.35
2022-12-11T18:31:07.555Z,6.75
2022-12-11T18:33:52.363Z,8.00
2022-12-11T18:36:36.246Z,7.45
2022-12-11T18:39:19.116Z,5.30
2022-12-11T18:42:31.302Z,5.93
2022-12-11T18:45:07.006Z,11.80
2022-12-11T18:47:51.971Z,7.30
2022-12-11T18:50:36.499Z,11.43
2022-12-11T18:53:19.815Z,6.30
2022-12-11T18:56:07.560Z,5.13
2022-12-11T18:58:50.650Z,5.60
2022-12-11T19:01:34.592Z,4.07
2022-12-11T19:04:17.853Z,6.82
2022-12-11T19:07:02.426Z,6.25
2022-12-11T19:09:48.314Z,5.25
2022-12-11T19:12:31.553Z,4.68
2022-12-11T19:15:17.363Z,4.22
2022-12-11T19:18:02.471Z,4.75
2022-12-11T19:20:53.651Z,3.85
2022-12-11T19:23:43.477Z,4.38
2022-12-11T19:26:27.144Z,4.18
2022-12-11T19:29:10.677Z,4.93
2022-12-11T19:31:55.150Z,4.13
2022-12-11T19:34:39.492Z,4.75
2022-12-11T19:37:22.459Z,4.17
2022-12-11T19:40:09.341Z,4.32
2022-12-11T19:42:52.463Z,4.70
2022-12-11T19:45:36.007Z,9.10
2022-12-11T19:48:18.872Z,5.13
2022-12-11T19:51:05.780Z,4.68
2022-12-11T19:53:49.662Z,4.75
2022-12-11T19:56:35.394Z,3.45
2022-12-11T19:59:19.314Z,4.15
2022-12-11T20:02:02.249Z,5.75
2022-12-11T20:04:45.173Z,6.90
2022-12-11T20:07:30.733Z,7.75
2022-12-11T20:10:14.071Z,8.15
2022-12-11T20:12:59.194Z,5.35
2022-12-11T20:15:42.082Z,5.03
2022-12-11T20:18:25.041Z,3.90
2022-12-11T20:21:10.069Z,4.20
2022-12-11T20:23:52.926Z,7.07
2022-12-11T20:26:38.151Z,4.72
2022-12-11T20:29:22.698Z,8.30
2022-12-11T20:32:06.004Z,8.65
2022-12-11T20:34:48.947Z,5.90
2022-12-11T20:37:32.028Z,7.80
2022-12-11T20:40:14.880Z,5.18
2022-12-11T20:42:57.715Z,6.03
2022-12-11T20:45:42.028Z,5.07
2022-12-11T20:51:09.716Z,4.85
2022-12-11T20:53:58.184Z,4.30
2022-12-11T20:56:41.141Z,4.82
2022-12-11T20:59:24.065Z,4.40
2022-12-11T21:02:09.507Z,11.32
2022-12-11T21:04:52.598Z,7.75
2022-12-11T21:07:35.514Z,6.00
2022-12-11T21:10:18.498Z,4.85
2022-12-11T21:13:01.400Z,4.60
2022-12-11T21:15:44.776Z,4.10
2022-12-11T21:18:28.947Z,3.90
2022-12-11T21:21:11.780Z,4.93
2022-12-11T21:23:54.700Z,4.18
2022-12-11T21:26:37.562Z,5.20
2022-12-11T21:29:20.395Z,5.03
2022-12-11T21:32:03.381Z,4.75
2022-12-11T21:34:47.655Z,6.50
2022-12-11T21:40:13.962Z,4.38
2022-12-11T21:42:58.042Z,3.70
2022-12-11T21:48:44.956Z,4.53
2022-12-11T21:51:36.894Z,4.82
2022-12-11T21:54:21.555Z,4.30
2022-12-11T21:57:04.839Z,4.63
2022-12-11T21:59:47.679Z,5.10
2022-12-11T22:02:36.012Z,4.70
2022-12-11T22:05:21.986Z,4.10
2022-12-11T22:08:07.143Z,5.35
2022-12-11T22:10:50.654Z,5.30
2022-12-11T22:13:33.596Z,7.38
2022-12-11T22:16:16.530Z,5.60
2022-12-11T22:18:59.540Z,4.43
2022-12-11T22:21:42.661Z,4.25
2022-12-11T22:24:26.834Z,4.40
2022-12-11T22:29:52.687Z,3.75
2022-12-11T22:32:35.550Z,4.35
2022-12-11T22:35:20.951Z,5.82
2022-12-11T22:38:07.584Z,4.28
2022-12-11T22:40:51.813Z,4.20
2022-12-11T22:46:18.227Z,4.10
2022-12-11T22:49:01.112Z,4.00
2022-12-11T22:51:45.905Z,5.53
2022-12-11T22:54:28.829Z,5.03
2022-12-11T22:57:14.220Z,5.63
2022-12-11T22:59:57.914Z,5.95
2022-12-11T23:02:41.037Z,6.90
2022-12-11T23:05:23.973Z,6.28
2022-12-11T23:08:07.326Z,4.93
2022-12-11T23:10:50.248Z,5.40
2022-12-11T23:13:34.477Z,5.25
2022-12-11T23:19:00.362Z,4.25
2022-12-11T23:21:43.614Z,5.15
2022-12-11T23:27:10.456Z,5.53
2022-12-11T23:29:55.217Z,5.32
2022-12-11T23:32:38.155Z,4.70
2022-12-11T23:35:20.985Z,4.90
2022-12-11T23:38:05.463Z,5.57
2022-12-11T23:40:49.371Z,4.68
2022-12-11T23:43:32.666Z,4.00
2022-12-11T23:46:19.236Z,3.67
2022-12-11T23:49:02.187Z,3.30
2022-12-11T23:51:45.052Z,3.88
2022-12-11T23:54:27.994Z,3.05
2022-12-11T23:57:10.854Z,2.90
2022-12-11T23:59:53.845Z,3.08
